Data for 11/25/2015

Time Sea-Level Adjusted Pressure Absolute Pressure Temperature Relative Humidity Dew Point   
(mb) (inHg) (mb) (inHg) (C) (F) (%) (C) (F)
00:05 1015 29.97 845 24.95 -7.6 18.3 86 -9.5 14.9
00:10 1015 29.97 845 24.95 -7.7 18.1 87 -9.6 14.7
00:15 1015 29.97 845 24.95 -7.8 18 86 -9.7 14.6
00:20 1015 29.97 845 24.95 -7.8 17.9 87 -9.7 14.6
00:25 1016 30 845 24.95 -7.7 18.1 85 -9.9 14.3
00:30 1016 30 845 24.95 -7.8 17.9 85 -9.9 14.1
00:35 1016 30 845 24.95 -7.9 17.8 85 -10 14
00:40 1016 30 845 24.95 -7.9 17.7 85 -10 14
00:45 1016 30 845 24.95 -8 17.6 85 -10.1 13.9
00:50 1016 30 845 24.95 -8.1 17.5 85 -10.2 13.7
00:55 1016 30 845 24.95 -8.1 17.4 85 -10.2 13.6
01:00 1016 30 845 24.95 -8.1 17.4 85 -10.2 13.6
01:05 1016 30 845 24.95 -8.2 17.3 84 -10.4 13.3
01:10 1016 30 845 24.95 -8.2 17.2 85 -10.3 13.5
01:15 1016 30 845 24.95 -8.3 17.1 85 -10.4 13.3
01:20 1016 30 845 24.95 -8.3 17 85 -10.5 13.2
01:25 1016 30 845 24.95 -8.4 16.9 85 -10.4 13.2
01:30 1016 30 845 24.95 -8.4 16.9 85 -10.5 13
01:35 1016 30 845 24.95 -8.4 16.8 85 -10.6 13
01:40 1016 30 845 24.95 -8.5 16.8 85 -10.6 13
01:45 1016 30 845 24.95 -8.5 16.7 85 -10.6 12.9
01:50 1016 30 845 24.95 -8.5 16.7 84 -10.7 12.7
01:55 1016 30 845 24.95 -8.6 16.6 84 -10.8 12.5
02:00 1016 30 845 24.95 -8.6 16.5 83 -11 12.2
02:05 1016 30 845 24.95 -8.6 16.5 83 -11 12.2
02:10 1016 30 845 24.95 -8.7 16.4 83 -11.1 12
02:15 1016 30 845 24.95 -8.8 16.3 83 -11.1 12
02:20 1016 30 846 24.98 -8.8 16.2 83 -11.1 12
02:25 1016 30 845 24.95 -8.8 16.1 83 -11.2 11.8
02:30 1016 30 845 24.95 -8.9 16.1 82 -11.3 11.6
02:35 1016 30 845 24.95 -8.9 16 82 -11.5 11.3
02:40 1016 30 846 24.98 -8.9 16 82 -11.5 11.4
02:45 1016 30 846 24.98 -8.9 16 81 -11.6 11.2
02:50 1016 30 846 24.98 -9 15.9 81 -11.7 11
02:55 1017 30.03 846 24.98 -9 15.8 81 -11.8 10.8
03:00 1017 30.03 846 24.98 -9 15.8 81 -11.7 11
03:05 1017 30.03 846 24.98 -9 15.7 81 -11.7 11
03:10 1017 30.03 846 24.98 -9.1 15.6 83 -11.5 11.2
03:15 1017 30.03 846 24.98 -9.2 15.5 82 -11.7 11
03:20 1017 30.03 846 24.98 -9.2 15.5 83 -11.6 11.1
03:25 1017 30.03 846 24.98 -9.2 15.4 83 -11.6 11.1
03:30 1017 30.03 846 24.98 -9.3 15.3 83 -11.6 11
03:35 1017 30.03 846 24.98 -9.3 15.2 83 -11.7 11
03:40 1017 30.03 846 24.98 -9.3 15.2 83 -11.7 10.9
03:45 1017 30.03 846 24.98 -9.4 15 83 -11.9 10.6
03:50 1017 30.03 846 24.98 -9.5 15 83 -11.8 10.7
03:55 1017 30.03 846 24.98 -9.5 15 83 -11.9 10.6
04:00 1017 30.03 846 24.98 -9.5 15 83 -11.9 10.6
04:05 1017 30.03 846 24.98 -9.5 15 82 -12 10.4
04:10 1017 30.03 846 24.98 -9.6 14.8 83 -12 10.4
04:15 1017 30.03 846 24.98 -9.6 14.7 83 -12 10.4
04:20 1017 30.03 846 24.98 -9.6 14.7 82 -12.1 10.2
04:25 1017 30.03 846 24.98 -9.7 14.6 83 -12.1 10.2
04:30 1017 30.03 846 24.98 -9.7 14.6 83 -12.1 10.3
04:35 1017 30.03 846 24.98 -9.7 14.6 83 -12 10.4
04:40 1017 30.03 846 24.98 -9.6 14.7 83 -12 10.3
04:45 1017 30.03 846 24.98 -9.6 14.7 83 -12 10.4
04:50 1017 30.03 846 24.98 -9.7 14.5 84 -11.9 10.5
04:55 1017 30.03 846 24.98 -9.7 14.6 84 -12 10.5
05:00 1017 30.03 846 24.98 -9.7 14.5 84 -12 10.5
05:05 1017 30.03 846 24.98 -9.8 14.4 85 -11.9 10.5
05:10 1017 30.03 846 24.98 -9.8 14.4 85 -11.9 10.6
05:15 1017 30.03 846 24.98 -9.8 14.3 85 -11.9 10.5
05:20 1017 30.03 846 24.98 -9.9 14.3 85 -11.9 10.6
05:25 1017 30.03 846 24.98 -9.8 14.3 85 -11.9 10.6
05:30 1017 30.03 847 25.01 -9.8 14.4 85 -11.9 10.6
05:35 1017 30.03 847 25.01 -9.8 14.4 85 -11.8 10.7
05:40 1017 30.03 847 25.01 -9.8 14.3 84 -12.1 10.3
05:45 1017 30.03 847 25.01 -9.9 14.2 84 -12.1 10.3
05:50 1017 30.03 847 25.01 -9.9 14.2 84 -12.1 10.3
05:55 1017 30.03 847 25.01 -9.8 14.4 84 -12.1 10.3
06:00 1017 30.03 847 25.01 -9.9 14.2 83 -12.2 10
06:05 1018 30.06 847 25.01 -9.9 14.2 84 -12.2 10.1
06:10 1018 30.06 847 25.01 -9.8 14.3 84 -12.1 10.3
06:15 1018 30.06 847 25.01 -9.9 14.2 84 -12.1 10.2
06:20 1018 30.06 847 25.01 -10 14 83 -12.4 9.7
06:25 1018 30.06 847 25.01 -10 13.9 84 -12.3 9.9
06:30 1018 30.06 847 25.01 -10 14 84 -12.2 10.1
06:35 1018 30.06 847 25.01 -10 14.1 83 -12.3 9.8
06:40 1018 30.06 847 25.01 -10.1 13.9 84 -12.3 9.8
06:45 1018 30.06 847 25.01 -10 14.1 83 -12.4 9.7
06:50 1018 30.06 847 25.01 -10 13.9 83 -12.3 9.8
06:55 1018 30.06 847 25.01 -10 14 84 -12.2 10
07:00 1018 30.06 847 25.01 -10 14 84 -12.2 10
07:05 1018 30.06 847 25.01 -10 14 84 -12.3 9.9
07:10 1018 30.06 847 25.01 -10.1 13.8 84 -12.3 9.9
07:15 1018 30.06 847 25.01 -10.1 13.8 84 -12.4 9.7
07:20 1018 30.06 847 25.01 -10.1 13.8 85 -12.2 10
07:25 1018 30.06 847 25.01 -10.1 13.8 84 -12.3 9.9
07:30 1018 30.06 847 25.01 -10.2 13.7 85 -12.3 9.9
07:35 1018 30.06 848 25.04 -10.2 13.7 85 -12.3 9.8
07:40 1018 30.06 848 25.04 -10.2 13.7 85 -12.3 9.9
07:45 1018 30.06 848 25.04 -10.1 13.9 86 -12 10.4
07:50 1018 30.06 848 25.04 -10 14 84 -12.2 10.1
07:55 1018 30.06 848 25.04 -10.2 13.7 85 -12.2 10
08:00 1018 30.06 848 25.04 -10.1 13.7 85 -12.2 10
08:05 1018 30.06 848 25.04 -10 13.9 85 -12.1 10.3
08:10 1018 30.06 848 25.04 -10 14 85 -12.1 10.3
08:15 1019 30.09 848 25.04 -10.1 13.8 85 -12.1 10.2
08:20 1019 30.09 848 25.04 -10.1 13.9 86 -12 10.4
08:25 1019 30.09 848 25.04 -9.9 14.1 86 -11.9 10.6
08:30 1019 30.09 848 25.04 -10 14.1 86 -11.9 10.5
08:35 1019 30.09 848 25.04 -10 14 86 -11.9 10.5
08:40 1019 30.09 848 25.04 -10 14 86 -11.9 10.5
08:45 1019 30.09 848 25.04 -10.1 13.8 86 -12 10.4
08:50 1019 30.09 848 25.04 -10.1 13.8 86 -12 10.4
08:55 1019 30.09 848 25.04 -10.1 13.7 87 -11.9 10.5
09:00 1019 30.09 848 25.04 -10.1 13.8 87 -11.9 10.6
09:05 1019 30.09 848 25.04 -10 14 86 -11.9 10.6
09:10 1019 30.09 848 25.04 -10 14 86 -11.9 10.6
09:15 1019 30.09 848 25.04 -10.1 13.9 86 -12 10.5
09:20 1019 30.09 848 25.04 -9.9 14.1 84 -12.2 10.1
09:25 1019 30.09 848 25.04 -9.7 14.5 80 -12.5 9.6
09:30 1019 30.09 848 25.04 -9.7 14.6 80 -12.6 9.4
09:35 1019 30.09 848 25.04 -9.7 14.5 79 -12.7 9.1
09:40 1019 30.09 849 25.07 -9.8 14.5 79 -12.7 9.1
09:45 1019 30.09 849 25.07 -9.9 14.3 79 -12.9 8.8
09:50 1019 30.09 849 25.07 -9.9 14.2 80 -12.7 9.2
09:55 1019 30.09 849 25.07 -9.9 14.2 78 -13 8.6
10:00 1019 30.09 849 25.07 -9.9 14.2 79 -12.9 8.8
10:05 1019 30.09 849 25.07 -9.8 14.4 78 -13 8.6
10:10 1019 30.09 849 25.07 -9.7 14.5 80 -12.5 9.5
10:15 1020 30.12 849 25.07 -9.5 14.9 82 -12.1 10.2
10:20 1020 30.12 849 25.07 -9.5 14.8 81 -12.2 10
10:25 1020 30.12 849 25.07 -9.4 15 81 -12.2 10.1
10:30 1020 30.12 849 25.07 -9.3 15.2 78 -12.5 9.4
10:35 1020 30.12 849 25.07 -9.3 15.4 77 -12.6 9.3
10:40 1020 30.12 849 25.07 -9.1 15.7 77 -12.3 9.8
10:45 1020 30.12 849 25.07 -9.1 15.6 76 -12.6 9.4
10:50 1020 30.12 849 25.07 -9.3 15.4 76 -12.7 9.1
10:55 1020 30.12 849 25.07 -9.2 15.4 77 -12.6 9.3
11:00 1020 30.12 849 25.07 -9.1 15.6 76 -12.6 9.4
11:05 1020 30.12 849 25.07 -9 15.8 75 -12.7 9.2
11:10 1020 30.12 849 25.07 -9.1 15.6 75 -12.7 9.1
11:15 1020 30.12 849 25.07 -9.1 15.5 76 -12.6 9.3
11:20 1020 30.12 849 25.07 -9 15.8 77 -12.4 9.7
11:25 1020 30.12 849 25.07 -8.6 16.4 77 -12.1 10.3
11:30 1020 30.12 849 25.07 -8.4 16.9 77 -11.7 10.9
11:35 1020 30.12 849 25.07 -8.2 17.3 77 -11.5 11.3
11:40 1020 30.12 849 25.07 -7.9 17.8 76 -11.4 11.5
11:45 1020 30.12 849 25.07 -7.9 17.7 76 -11.5 11.3
11:50 1020 30.12 849 25.07 -8.2 17.3 76 -11.7 10.9
11:55 1020 30.12 849 25.07 -8.4 17 77 -11.6 11
12:00 1020 30.12 849 25.07 -8.1 17.4 77 -11.5 11.3
12:05 1020 30.12 849 25.07 -8.1 17.5 74 -11.9 10.6
12:10 1020 30.12 849 25.07 -8 17.6 76 -11.6 11.1
12:15 1020 30.12 849 25.07 -8.4 16.9 79 -11.4 11.5
12:20 1020 30.12 849 25.07 -8.2 17.3 76 -11.7 11
12:25 1020 30.12 849 25.07 -7.9 17.8 74 -11.8 10.7
12:30 1020 30.12 849 25.07 -8 17.7 73 -11.9 10.5
12:35 1020 30.12 849 25.07 -8.1 17.3 75 -11.9 10.6
12:40 1020 30.12 849 25.07 -7.9 17.7 75 -11.7 11
12:45 1020 30.12 849 25.07 -7.9 17.8 74 -11.7 10.9
12:50 1020 30.12 849 25.07 -7.7 18.2 74 -11.6 11.2
12:55 1020 30.12 849 25.07 -7.4 18.6 72 -11.6 11.1
13:00 1020 30.12 849 25.07 -7.5 18.5 73 -11.5 11.2
13:05 1020 30.12 849 25.07 -7.2 19 69 -11.9 10.6
13:10 1020 30.12 849 25.07 -7.2 19.1 69 -11.9 10.6
13:15 1020 30.12 849 25.07 -7.5 18.6 66 -12.7 9.1
13:20 1020 30.12 849 25.07 -7.4 18.7 65 -12.9 8.8
13:25 1020 30.12 849 25.07 -7.5 18.5 64 -13.1 8.5
13:30 1020 30.12 849 25.07 -7.6 18.4 68 -12.5 9.4
13:35 1020 30.12 849 25.07 -7.4 18.6 68 -12.4 9.6
13:40 1020 30.12 849 25.07 -7.1 19.3 71 -11.5 11.3
13:45 1020 30.12 849 25.07 -7.3 18.8 71 -11.6 11.1
13:50 1020 30.12 849 25.07 -7.6 18.4 68 -12.4 9.6
13:55 1020 30.12 849 25.07 -7.6 18.3 69 -12.4 9.7
14:00 1020 30.12 849 25.07 -7.5 18.5 67 -12.7 9.2
14:05 1020 30.12 849 25.07 -7.6 18.3 68 -12.5 9.4
14:10 1020 30.12 849 25.07 -7.8 18 70 -12.3 9.8
14:15 1020 30.12 849 25.07 -8 17.7 76 -11.5 11.2
14:20 1020 30.12 849 25.07 -8.8 16.1 79 -11.8 10.8
14:25 1020 30.12 849 25.07 -8.8 16.1 79 -11.8 10.8
14:30 1020 30.12 849 25.07 -8.4 17 72 -12.6 9.3
14:35 1020 30.12 849 25.07 -8 17.6 69 -12.7 9.1
14:40 1020 30.12 849 25.07 -7.8 17.9 69 -12.5 9.5
14:45 1020 30.12 849 25.07 -7.9 17.7 69 -12.6 9.3
14:50 1020 30.12 849 25.07 -7.9 17.7 68 -12.8 8.9
14:55 1020 30.12 849 25.07 -8 17.7 69 -12.7 9.2
15:00 1020 30.12 849 25.07 -8 17.7 70 -12.6 9.3
15:05 1020 30.12 849 25.07 -8.1 17.4 69 -12.8 8.9
15:10 1020 30.12 849 25.07 -8.2 17.2 69 -12.9 8.7
15:15 1020 30.12 849 25.07 -8.2 17.2 71 -12.6 9.3
15:20 1020 30.12 849 25.07 -8.3 17.1 70 -12.8 8.9
15:25 1020 30.12 849 25.07 -8.2 17.2 70 -12.7 9.1
15:30 1020 30.12 849 25.07 -8.3 17 70 -12.8 8.9
15:35 1020 30.12 849 25.07 -8.3 17 67 -13.4 7.9
15:40 1020 30.12 849 25.07 -8.4 16.9 70 -13 8.6
15:45 1020 30.12 849 25.07 -8.6 16.6 72 -12.8 9
15:50 1020 30.12 849 25.07 -8.7 16.4 72 -12.9 8.7
15:55 1020 30.12 849 25.07 -8.6 16.4 70 -13.2 8.3
16:00 1020 30.12 849 25.07 -8.7 16.4 69 -13.4 7.9
16:05 1020 30.12 849 25.07 -8.6 16.5 68 -13.5 7.7
16:10 1020 30.12 849 25.07 -8.6 16.6 68 -13.4 7.8
16:15 1020 30.12 849 25.07 -8.5 16.6 67 -13.6 7.4
16:20 1020 30.12 849 25.07 -8.6 16.6 66 -13.9 7
16:25 1020 30.12 849 25.07 -8.6 16.5 66 -13.8 7.1
16:30 1020 30.12 849 25.07 -8.6 16.5 65 -14 6.8
16:35 1020 30.12 849 25.07 -8.6 16.5 65 -14 6.9
16:40 1020 30.12 849 25.07 -8.6 16.6 64 -14.2 6.5
16:45 1020 30.12 849 25.07 -8.5 16.6 64 -14.3 6.3
16:50 1020 30.12 849 25.07 -8.5 16.7 64 -14.2 6.5
16:55 1020 30.12 849 25.07 -8.5 16.7 65 -13.9 6.9
17:00 1020 30.12 849 25.07 -8.5 16.7 65 -14 6.9
17:05 1020 30.12 850 25.1 -8.5 16.6 66 -13.9 7
17:10 1020 30.12 850 25.1 -8.6 16.6 66 -13.8 7.2
17:15 1021 30.15 850 25.1 -8.6 16.5 66 -13.8 7.1
17:20 1021 30.15 850 25.1 -8.7 16.3 67 -13.7 7.3
17:25 1021 30.15 850 25.1 -8.8 16.2 68 -13.7 7.4
17:30 1021 30.15 850 25.1 -8.8 16.2 66 -14 6.8
17:35 1021 30.15 850 25.1 -8.8 16.2 68 -13.7 7.3
17:40 1021 30.15 850 25.1 -8.8 16.1 67 -13.9 7.1
17:45 1021 30.15 850 25.1 -8.9 16 67 -13.9 6.9
17:50 1021 30.15 850 25.1 -8.9 16 66 -14.1 6.7
17:55 1021 30.15 850 25.1 -8.9 16 66 -14 6.7
18:00 1021 30.15 850 25.1 -8.9 16 66 -14.2 6.4
18:05 1021 30.15 850 25.1 -8.9 16 66 -14.2 6.5
18:10 1021 30.15 850 25.1 -8.9 16 67 -13.9 7
18:15 1021 30.15 850 25.1 -9.1 15.7 70 -13.5 7.6
18:20 1021 30.15 851 25.13 -9.2 15.4 71 -13.6 7.5
18:25 1021 30.15 851 25.13 -9.3 15.2 71 -13.6 7.4
18:30 1021 30.15 851 25.13 -9.5 14.9 72 -13.7 7.4
18:35 1021 30.15 851 25.13 -9.5 14.8 71 -13.8 7.2
18:40 1021 30.15 851 25.13 -9.6 14.8 72 -13.8 7.2
18:45 1021 30.15 851 25.13 -9.6 14.7 72 -13.7 7.3
18:50 1021 30.15 851 25.13 -9.6 14.6 72 -13.8 7.2
18:55 1021 30.15 851 25.13 -9.6 14.6 72 -13.9 7
19:00 1022 30.18 851 25.13 -9.7 14.6 71 -13.9 7
19:05 1022 30.18 851 25.13 -9.7 14.6 72 -13.9 7
19:10 1022 30.18 851 25.13 -9.7 14.5 71 -14 6.9
19:15 1022 30.18 851 25.13 -9.7 14.5 72 -13.9 6.9
19:20 1022 30.18 851 25.13 -9.7 14.5 71 -14 6.8
19:25 1022 30.18 851 25.13 -9.8 14.4 73 -13.8 7.1
19:30 1022 30.18 851 25.13 -9.8 14.4 72 -13.9 7
19:35 1022 30.18 851 25.13 -9.8 14.3 73 -13.9 7
19:40 1022 30.18 851 25.13 -9.9 14.2 73 -13.9 6.9
19:45 1022 30.18 851 25.13 -9.9 14.2 73 -13.8 7.1
19:50 1022 30.18 851 25.13 -9.9 14.2 73 -13.9 7
19:55 1022 30.18 851 25.13 -9.9 14.2 73 -13.8 7.1
20:00 1022 30.18 851 25.13 -9.9 14.1 73 -13.9 7
20:05 1022 30.18 851 25.13 -9.9 14.1 73 -13.9 6.9
20:10 1022 30.18 851 25.13 -9.9 14.2 72 -14 6.9
20:15 1022 30.18 851 25.13 -9.9 14.1 73 -13.9 6.9
20:20 1022 30.18 851 25.13 -9.9 14.1 73 -13.9 6.9
20:25 1022 30.18 851 25.13 -10 14.1 73 -13.9 6.9
20:30 1022 30.18 851 25.13 -9.9 14.1 73 -13.9 7
20:35 1022 30.18 851 25.13 -10 14.1 73 -14 6.9
20:40 1022 30.18 851 25.13 -10 14.1 73 -13.9 7
20:45 1022 30.18 852 25.16 -10 14 73 -13.9 6.9
20:50 1022 30.18 852 25.16 -10 14 73 -14 6.8
20:55 1022 30.18 852 25.16 -10 13.9 73 -14 6.8
21:00 1022 30.18 852 25.16 -10.1 13.8 73 -14.1 6.6
21:05 1022 30.18 852 25.16 -10.1 13.8 73 -14 6.7
21:10 1022 30.18 852 25.16 -10.2 13.7 74 -14 6.7
21:15 1022 30.18 852 25.16 -10.2 13.6 74 -14.1 6.6
21:20 1022 30.18 852 25.16 -10.3 13.5 74 -14.1 6.6
21:25 1022 30.18 852 25.16 -10.4 13.4 74 -14.2 6.5
21:30 1022 30.18 852 25.16 -10.4 13.4 74 -14.1 6.6
21:35 1022 30.18 852 25.16 -10.4 13.2 74 -14.2 6.5
21:40 1023 30.21 852 25.16 -10.5 13.2 74 -14.2 6.5
21:45 1023 30.21 852 25.16 -10.5 13.1 75 -14.2 6.5
21:50 1023 30.21 852 25.16 -10.6 13 74 -14.3 6.3
21:55 1023 30.21 852 25.16 -10.6 13 74 -14.3 6.3
22:00 1023 30.21 852 25.16 -10.6 12.9 74 -14.3 6.2
22:05 1023 30.21 852 25.16 -10.7 12.8 75 -14.3 6.3
22:10 1023 30.21 852 25.16 -10.8 12.7 76 -14.2 6.4
22:15 1023 30.21 852 25.16 -10.8 12.5 76 -14.3 6.3
22:20 1023 30.21 852 25.16 -10.9 12.4 76 -14.4 6.1
22:25 1023 30.21 852 25.16 -11 12.3 76 -14.5 6
22:30 1023 30.21 852 25.16 -11 12.2 76 -14.5 5.9
22:35 1023 30.21 852 25.16 -10.9 12.3 74 -14.6 5.6
22:40 1023 30.21 852 25.16 -10.9 12.4 74 -14.6 5.7
22:45 1023 30.21 852 25.16 -10.9 12.4 74 -14.6 5.7
22:50 1023 30.21 852 25.16 -11 12.3 75 -14.6 5.7
22:55 1023 30.21 852 25.16 -10.9 12.4 75 -14.6 5.8
23:00 1023 30.21 852 25.16 -11 12.2 75 -14.6 5.7
23:05 1023 30.21 852 25.16 -11 12.2 74 -14.7 5.5
23:10 1023 30.21 852 25.16 -10.9 12.3 74 -14.7 5.5
23:15 1023 30.21 852 25.16 -11 12.2 74 -14.7 5.5
23:20 1023 30.21 852 25.16 -11.1 12 75 -14.8 5.4
23:25 1023 30.21 852 25.16 -11.4 11.5 76 -14.8 5.3
23:30 1023 30.21 852 25.16 -11.5 11.4 76 -14.8 5.3
23:35 1023 30.21 852 25.16 -11.5 11.2 77 -14.9 5.2
23:40 1023 30.21 852 25.16 -11.6 11.1 77 -14.9 5.1
23:45 1023 30.21 852 25.16 -11.6 11.1 77 -14.9 5.1
23:50 1023 30.21 852 25.16 -11.6 11.1 77 -15 5.1
23:55 1023 30.21 852 25.16 -11.6 11.1 76 -15 5
24:00 1023 30.21 852 25.16 -11.4 11.4 76 -14.9 5.2